Time;durP1;ratioP1;P1;durP2;ratioP2;P2;SDS_P1;SDS_P2;PMS_P1;PMS_P2;Temp;Humidity;BMP_temperature;BMP_pressure;BME280_temperature;BME280_humidity;BME280_pressure;Samples;Min_cycle;Max_cycle;Signal;HPM_P1;HPM_P2
2023/09/02 00:02:11;;;;;;;16.50;13.10;;;;;;;16.41;66.10;100475.11;109927;1266;23731;-78
2023/09/02 00:05:17;;;;;;;17.00;13.10;;;;;;;16.42;66.09;100476.85;110205;1266;22330;-78
2023/09/02 00:08:09;;;;;;;17.40;12.40;;;;;;;16.42;66.20;100481.05;109956;1267;22160;-77
2023/09/02 00:10:54;;;;;;;18.90;13.70;;;;;;;16.42;66.17;100477.88;110219;1266;21975;-78
2023/09/02 00:13:44;;;;;;;16.20;12.30;;;;;;;16.43;66.23;100478.50;109974;1266;23624;-77
2023/09/02 00:16:20;;;;;;;17.60;13.30;;;;;;;16.41;66.33;100476.19;109664;1266;21965;-77
2023/09/02 00:19:21;;;;;;;16.50;13.00;;;;;;;16.39;66.22;100482.44;109375;1272;21986;-76
2023/09/02 00:22:30;;;;;;;;;;;;;;;;;;;;;
2023/09/02 00:25:24;;;;;;;15.90;11.60;;;;;;;16.30;66.47;100483.85;109606;1271;21981;-77
2023/09/02 00:28:03;;;;;;;19.20;15.50;;;;;;;16.28;66.61;100486.10;109478;1271;23640;-78
2023/09/02 00:30:53;;;;;;;17.10;13.60;;;;;;;16.26;66.79;100486.36;109458;1271;23649;-77
2023/09/02 00:34:29;;;;;;;14.80;12.30;;;;;;;16.22;66.94;100488.05;109523;1272;21976;-78
2023/09/02 00:37:22;;;;;;;13.30;11.70;;;;;;;16.18;66.95;100493.34;109810;1266;22450;-79
2023/09/02 00:40:24;;;;;;;13.30;11.30;;;;;;;16.18;67.05;100494.94;109482;1267;22489;-78
2023/09/02 00:43:13;;;;;;;17.10;11.30;;;;;;;16.16;67.18;100495.93;108804;1281;21996;-79
2023/09/02 00:46:26;;;;;;;13.60;10.80;;;;;;;16.14;67.45;100493.58;108689;1281;22005;-78
2023/09/02 00:49:10;;;;;;;14.50;9.80;;;;;;;16.13;67.50;100491.73;108596;1281;22056;-78
2023/09/02 00:52:00;;;;;;;17.80;9.20;;;;;;;16.12;67.71;100493.73;108677;1281;22884;-76
2023/09/02 00:54:43;;;;;;;;;;;;;;;16.11;67.65;100493.40;108516;1283;22999;-77
2023/09/02 00:57:32;;;;;;;14.40;11.80;;;;;;;16.01;67.93;100498.52;108398;1282;22762;-79
2023/09/02 01:00:16;;;;;;;19.70;12.70;;;;;;;16.00;67.94;100498.98;108558;1282;21993;-78
2023/09/02 01:03:05;;;;;;;13.80;12.00;;;;;;;15.97;67.95;100499.61;108189;1279;23103;-78
2023/09/02 01:06:01;;;;;;;12.80;11.10;;;;;;;15.97;68.34;100500.73;108082;1288;21999;-76
2023/09/02 01:09:04;;;;;;;18.50;14.30;;;;;;;15.96;68.51;100502.30;108410;1283;21994;-77
2023/09/02 01:12:04;;;;;;;21.40;17.30;;;;;;;15.94;68.56;100502.30;108299;1283;22038;-77
2023/09/02 01:15:06;;;;;;;;;;;;;;;;;;;;;
2023/09/02 01:18:13;;;;;;;15.80;11.90;;;;;;;15.94;68.78;100506.52;108533;1283;22759;-77
2023/09/02 01:21:36;;;;;;;18.20;11.30;;;;;;;15.93;68.82;100507.08;109061;1271;21988;-78
2023/09/02 01:24:58;;;;;;;12.60;11.30;;;;;;;15.91;68.90;100508.25;109793;1270;22496;-77
2023/09/02 01:27:55;;;;;;;13.60;12.10;;;;;;;15.89;69.10;100506.64;109026;1276;22387;-78
2023/09/02 01:30:55;;;;;;;16.40;12.30;;;;;;;15.86;69.18;100503.43;109109;1274;22739;-78
2023/09/02 01:33:55;;;;;;;20.80;18.70;;;;;;;15.85;69.29;100504.73;109044;1274;21979;-77
2023/09/02 01:37:00;;;;;;;15.00;12.10;;;;;;;15.85;69.45;100510.70;109748;1267;21951;-78
2023/09/02 01:40:25;;;;;;;13.30;10.60;;;;;;;15.82;69.48;100513.33;110188;1266;21960;-78
2023/09/02 01:43:37;;;;;;;;;;;;;;;;;;;;;
2023/09/02 01:46:43;;;;;;;12.50;11.20;;;;;;;15.76;69.58;100515.41;110278;1263;23695;-78
2023/09/02 01:49:19;;;;;;;12.20;9.70;;;;;;;15.74;69.63;100516.58;109961;1266;21979;-78
2023/09/02 01:52:10;;;;;;;10.10;9.10;;;;;;;15.73;69.69;100518.54;109962;1266;22901;-77
2023/09/02 01:54:49;;;;;;;12.30;9.50;;;;;;;15.72;69.84;100518.47;109208;1273;21981;-77
2023/09/02 01:57:53;;;;;;;;;;;;;;;;;;;;;
2023/09/02 02:00:39;;;;;;;13.90;10.50;;;;;;;15.63;69.83;100521.73;109283;1273;21975;-78
2023/09/02 02:03:50;;;;;;;13.80;10.60;;;;;;;15.58;70.03;100522.73;108834;1278;21997;-78
2023/09/02 02:06:40;;;;;;;13.30;10.10;;;;;;;15.54;70.32;100529.23;108856;1277;22378;-78
2023/09/02 02:10:04;;;;;;;;;;;;;;;;;;;;;
2023/09/02 02:13:00;;;;;;;10.70;9.60;;;;;;;15.48;70.45;100539.06;108644;1279;21988;-77
2023/09/02 02:15:42;;;;;;;13.10;9.60;;;;;;;15.48;70.73;100539.77;108816;1279;22350;-78
2023/09/02 02:18:49;;;;;;;13.10;10.70;;;;;;;15.48;70.90;100537.98;108802;1270;23760;-77
2023/09/02 02:21:44;;;;;;;10.50;9.40;;;;;;;15.51;71.03;100536.45;108818;1279;21996;-78
2023/09/02 02:24:35;;;;;;;13.30;11.30;;;;;;;15.53;71.12;100546.48;108716;1275;23663;-77
2023/09/02 02:27:38;;;;;;;16.20;10.70;;;;;;;15.52;71.20;100544.44;108519;1273;21992;-77
2023/09/02 02:30:39;;;;;;;11.50;9.40;;;;;;;15.58;71.20;100546.92;108727;1274;24341;-77
2023/09/02 02:33:33;;;;;;;14.90;11.60;;;;;;;15.58;71.29;100545.85;109150;1275;23837;-77
2023/09/02 02:36:27;;;;;;;13.10;9.90;;;;;;;15.60;71.26;100552.04;109126;1275;21990;-78
2023/09/02 02:39:22;;;;;;;13.20;9.90;;;;;;;15.62;71.32;100554.58;109075;1272;22018;-79
2023/09/02 02:42:22;;;;;;;14.10;10.00;;;;;;;15.64;71.47;100553.44;110121;1266;23594;-76
2023/09/02 02:45:24;;;;;;;14.00;10.30;;;;;;;15.65;71.57;100555.64;110319;1265;21980;-77
2023/09/02 02:48:02;;;;;;;12.50;9.90;;;;;;;15.67;71.48;100553.95;109736;1271;22041;-77
2023/09/02 02:51:04;;;;;;;10.50;9.30;;;;;;;15.64;71.55;100551.52;109550;1270;23721;-78
2023/09/02 02:53:59;;;;;;;14.70;9.80;;;;;;;15.70;71.53;100559.58;109493;1271;22003;-78
2023/09/02 02:56:46;;;;;;;12.20;9.60;;;;;;;15.72;71.38;100561.58;108621;1281;22757;-78
2023/09/02 02:59:47;;;;;;;;;;;;;;;;;;;;;
2023/09/02 03:02:37;;;;;;;15.50;9.20;;;;;;;15.73;71.55;100555.77;109070;1271;23030;-77
2023/09/02 03:05:26;;;;;;;11.10;10.00;;;;;;;15.74;71.60;100556.95;109004;1271;23142;-78
2023/09/02 03:08:43;;;;;;;11.50;10.30;;;;;;;15.74;71.57;100555.52;109763;1269;23084;-76
2023/09/02 03:11:57;;;;;;;10.80;9.80;;;;;;;15.74;71.73;100556.92;109701;1271;23618;-77
2023/09/02 03:15:27;;;;;;;11.70;10.30;;;;;;;15.74;71.69;100561.29;109906;1259;22018;-78
2023/09/02 03:18:36;;;;;;;11.20;10.10;;;;;;;15.74;71.77;100561.49;110063;1265;23258;-79
2023/09/02 03:21:52;;;;;;;14.30;10.20;;;;;;;15.73;71.73;100564.87;109536;1265;24405;-78
2023/09/02 03:25:11;;;;;;;14.70;10.30;;;;;;;15.72;71.75;100568.10;109573;1270;22009;-78
2023/09/02 03:28:21;;;;;;;11.60;10.10;;;;;;;15.69;71.75;100565.05;109586;1267;21985;-75
2023/09/02 03:31:15;;;;;;;11.60;10.00;;;;;;;15.71;71.88;100569.41;110190;1267;21971;-77
2023/09/02 03:33:57;;;;;;;13.50;9.90;;;;;;;15.70;71.81;100570.64;109984;1267;22138;-76
2023/09/02 03:37:01;;;;;;;;;;;;;;;15.70;71.74;100571.88;109785;1267;21978;-77
2023/09/02 03:43:05;;;;;;;12.00;9.30;;;;;;;15.56;71.96;100569.98;110719;1261;22977;-78
2023/09/02 03:46:04;;;;;;;12.00;8.90;;;;;;;15.57;71.93;100568.38;109898;1253;21966;-78
2023/09/02 03:48:48;;;;;;;12.60;9.30;;;;;;;15.57;71.99;100568.73;110070;1260;23808;-77
2023/09/02 03:51:46;;;;;;;12.60;9.80;;;;;;;15.57;71.93;100573.80;110073;1266;21989;-77
2023/09/02 03:55:05;;;;;;;14.30;9.90;;;;;;;15.55;72.09;100576.55;110246;1266;22028;-77
2023/09/02 03:57:47;;;;;;;11.50;9.60;;;;;;;15.55;71.97;100573.92;109629;1270;22001;-78
2023/09/02 04:00:58;;;;;;;11.90;10.30;;;;;;;15.54;71.91;100573.63;109569;1270;21991;-77
2023/09/02 04:07:49;;;;;;;15.00;10.40;;;;;;;15.41;71.86;100577.13;108601;1276;21984;-79
2023/09/02 04:11:02;;;;;;;10.50;9.40;;;;;;;15.36;72.02;100583.73;108571;1281;21989;-78
2023/09/02 04:14:22;;;;;;;17.00;9.80;;;;;;;15.31;71.88;100585.91;108024;1291;22272;-78
2023/09/02 04:17:28;;;;;;;11.80;9.50;;;;;;;15.28;72.06;100588.02;108271;1286;22021;-78
2023/09/02 04:20:23;;;;;;;12.10;10.00;;;;;;;15.24;72.07;100587.70;102042;1286;8312383;-78
2023/09/02 04:23:25;;;;;;;12.80;9.70;;;;;;;15.24;72.16;100594.69;108385;1285;22528;-77
2023/09/02 04:26:17;;;;;;;20.50;12.10;;;;;;;15.24;72.09;100595.58;108616;1280;21990;-79
2023/09/02 04:29:08;;;;;;;15.80;11.60;;;;;;;15.23;72.24;100597.91;108772;1277;22267;-77
2023/09/02 04:32:12;;;;;;;;;;;;;;;;;;;;;
2023/09/02 04:35:18;;;;;;;12.20;10.30;;;;;;;15.28;72.70;100605.20;108628;1281;23692;-77
2023/09/02 04:38:19;;;;;;;13.60;10.10;;;;;;;15.29;72.77;100612.50;108730;1277;22780;-78
2023/09/02 04:41:26;;;;;;;12.10;10.10;;;;;;;15.33;72.83;100617.21;109065;1274;23163;-79
2023/09/02 04:44:36;;;;;;;14.40;10.70;;;;;;;15.35;73.01;100615.50;109506;1268;23093;-77
2023/09/02 04:47:32;;;;;;;13.90;11.00;;;;;;;15.41;73.01;100616.07;110024;1268;22046;-79
2023/09/02 04:50:28;;;;;;;13.70;10.60;;;;;;;15.44;72.85;100608.56;109889;1268;22021;-79
2023/09/02 04:54:28;;;;;;;;;;;;;;;;;;;;;
2023/09/02 04:57:36;;;;;;;20.60;11.30;;;;;;;15.56;73.31;100619.98;110702;1267;21989;-82
2023/09/02 05:01:33;;;;;;;;;;;;;;;;;;;;;
2023/09/02 05:04:34;;;;;;;10.80;9.70;;;;;;;15.68;72.84;100631.27;110423;1259;22002;-79
2023/09/02 05:07:24;;;;;;;10.40;9.30;;;;;;;15.74;72.78;100633.06;109561;1273;21977;-80
2023/09/02 05:10:35;;;;;;;13.80;10.90;;;;;;;15.82;72.99;100641.09;109594;1270;21994;-78
2023/09/02 05:13:38;;;;;;;;;;;;;;;;;;;;;
2023/09/02 05:17:19;;;;;;;15.60;11.90;;;;;;;16.00;72.97;100645.00;109030;1278;23609;-80
2023/09/02 05:20:31;;;;;;;;;;;;;;;;;;;;;
2023/09/02 05:23:57;;;;;;;14.50;11.20;;;;;;;16.12;72.77;100650.63;108592;1284;22018;-79
2023/09/02 05:27:11;;;;;;;13.10;10.10;;;;;;;16.23;72.90;100657.23;109338;1278;23737;-78
2023/09/02 05:30:39;;;;;;;9.60;8.70;;;;;;;16.37;73.25;100660.77;109210;1275;23112;-82
2023/09/02 05:34:01;;;;;;;11.10;8.60;;;;;;;16.51;73.16;100657.36;109545;1268;23048;-80
2023/09/02 05:36:51;;;;;;;9.20;7.60;;;;;;;16.66;73.28;100660.75;109782;1268;21946;-79
2023/09/02 05:40:07;;;;;;;16.40;9.60;;;;;;;16.79;73.32;100662.44;109973;1268;23699;-79
2023/09/02 05:43:29;;;;;;;13.90;9.80;;;;;;;16.90;73.13;100667.09;109440;1272;21991;-79
2023/09/02 05:46:49;;;;;;;8.90;8.00;;;;;;;17.00;73.00;100669.48;109148;1273;22021;-80
2023/09/02 05:49:57;;;;;;;10.40;7.70;;;;;;;17.12;73.17;100670.55;109025;1273;22005;-79
2023/09/02 05:52:40;;;;;;;9.60;8.00;;;;;;;17.28;73.09;100671.31;108999;1277;21985;-78
2023/09/02 05:55:58;;;;;;;9.60;8.60;;;;;;;17.47;73.20;100670.89;108851;1278;21997;-78
2023/09/02 06:01:56;;;;;;;8.80;7.90;;;;;;;17.92;72.93;100673.55;109568;1270;21980;-80
2023/09/02 06:05:00;;;;;;;12.20;8.30;;;;;;;18.13;72.45;100676.30;109492;1268;21990;-81
2023/09/02 06:08:44;;;;;;;9.40;7.00;;;;;;;18.31;71.84;100674.08;109568;1271;22992;-82
2023/09/02 06:12:39;;;;;;;8.40;7.50;;;;;;;18.48;71.31;100675.41;108646;1284;22119;-85
2023/09/02 06:16:27;;;;;;;10.30;7.00;;;;;;;18.74;71.25;100681.83;108714;1287;22014;-83
2023/09/02 06:20:31;;;;;;;8.50;7.30;;;;;;;19.13;71.36;100686.28;108558;1284;23100;-84
2023/09/02 06:24:20;;;;;;;8.50;7.00;;;;;;;19.50;70.49;100685.98;108604;1289;22098;-83
2023/09/02 06:27:31;;;;;;;7.30;6.60;;;;;;;19.91;69.55;100686.84;108610;1286;23843;-82
2023/09/02 06:31:24;;;;;;;10.70;6.40;;;;;;;20.14;67.91;100687.50;108914;1282;22373;-84
2023/09/02 06:35:32;;;;;;;7.80;6.90;;;;;;;20.56;68.09;100684.95;108462;1288;22017;-82
2023/09/02 06:59:30;;;;;;;8.80;7.90;;;;;;;23.96;53.39;100696.52;110828;1251;556415;-83
2023/09/02 07:03:05;;;;;;;;;;;;;;;23.89;53.26;100699.39;107048;1249;21979;-80
2023/09/02 07:05:40;;;;;;;10.30;6.90;;;;;;;23.85;54.82;100704.66;111462;1249;24374;-79
2023/09/02 07:08:22;;;;;;;7.40;6.70;;;;;;;24.08;54.86;100705.66;111609;1248;21982;-78
2023/09/02 07:10:59;;;;;;;9.00;6.50;;;;;;;24.27;54.15;100707.51;110901;1255;21951;-78
2023/09/02 07:13:35;;;;;;;9.40;7.60;;;;;;;24.32;53.43;100714.59;111039;1255;21961;-79
2023/09/02 07:16:10;;;;;;;9.70;8.50;;;;;;;24.43;53.29;100717.69;111321;1251;22989;-79
2023/09/02 07:18:41;;;;;;;9.90;8.10;;;;;;;24.53;52.96;100720.71;111308;1253;21971;-79
2023/09/02 07:21:14;;;;;;;10.90;7.30;;;;;;;24.64;52.52;100725.42;110924;1259;21974;-80
2023/09/02 07:23:52;;;;;;;8.80;6.80;;;;;;;24.87;52.93;100725.66;110700;1259;23830;-79
2023/09/02 07:26:32;;;;;;;11.70;7.30;;;;;;;24.94;51.42;100729.45;110708;1259;23629;-78
2023/09/02 07:29:28;;;;;;;7.90;7.00;;;;;;;24.91;51.51;100735.35;110928;1254;22055;-80
2023/09/02 07:33:17;;;;;;;7.90;7.20;;;;;;;25.01;51.50;100739.23;111017;1254;21957;-79
2023/09/02 07:42:01;;;;;;;7.30;6.50;;;;;;;25.27;50.72;100737.91;111692;1256;23096;-80
2023/09/02 07:57:36;;;;;;;;;;;;;;;;;;;;;
2023/09/02 08:01:49;;;;;;;8.30;6.80;;;;;;;25.84;48.52;100765.02;108505;1288;22012;-81
2023/09/02 08:06:17;;;;;;;;;;;;;;;;;;;;;
2023/09/02 08:08:49;;;;;;;14.70;8.40;;;;;;;25.09;48.63;100766.13;108523;1289;22015;-83
2023/09/02 08:12:16;;;;;;;8.50;7.60;;;;;;;24.92;49.24;100773.58;106479;1286;21996;-83
2023/09/02 08:16:04;;;;;;;;;;;;;;;;;;;;;
2023/09/02 08:19:58;;;;;;;;;;;;;;;;;;;;;
2023/09/02 08:34:54;;;;;;;7.80;7.00;;;;;;;26.78;44.93;100782.79;111000;1253;548932;-83
2023/09/02 08:38:28;;;;;;;7.10;5.70;;;;;;;27.38;42.32;100792.73;109837;1245;21995;-81
2023/09/02 08:41:38;;;;;;;7.40;5.70;;;;;;;27.33;43.15;100796.39;112338;1245;24273;-80
2023/09/02 08:44:11;;;;;;;6.90;5.40;;;;;;;27.46;42.94;100798.96;112120;1245;23731;-80
2023/09/02 08:46:52;;;;;;;6.10;5.20;;;;;;;27.59;42.50;100797.37;112214;1244;21974;-81
2023/09/02 08:50:16;;;;;;;;;;;;;;;;;;;;;
2023/09/02 08:53:17;;;;;;;6.40;5.70;;;;;;;27.85;42.00;100798.80;111754;1252;21989;-79
2023/09/02 08:56:11;;;;;;;8.90;5.30;;;;;;;28.03;41.35;100799.23;111613;1252;21979;-81
2023/09/02 08:59:55;;;;;;;7.50;5.30;;;;;;;28.13;40.78;100807.00;111059;1259;22979;-79
2023/09/02 09:02:56;;;;;;;8.10;4.40;;;;;;;28.20;40.14;100809.50;110402;1265;21970;-80
2023/09/02 09:10:00;;;;;;;;;;;;;;;;;;;;;
2023/09/02 09:13:16;;;;;;;6.80;4.20;;;;;;;28.36;38.62;100808.98;109714;1269;22140;-81
2023/09/02 09:16:15;;;;;;;4.90;3.90;;;;;;;28.36;37.82;100812.81;110401;1260;21967;-80
2023/09/02 09:19:33;;;;;;;4.80;3.90;;;;;;;28.33;37.88;100818.52;111041;1259;21975;-82
2023/09/02 09:22:20;;;;;;;6.00;3.90;;;;;;;28.40;38.07;100818.77;111440;1254;23066;-80
2023/09/02 09:25:15;;;;;;;7.50;4.00;;;;;;;28.52;37.72;100819.84;111156;1254;21972;-78
2023/09/02 09:28:15;;;;;;;7.00;4.00;;;;;;;28.55;37.41;100819.71;111345;1254;22093;-80
2023/09/02 09:32:12;;;;;;;;;;;;;;;;;;;;;
2023/09/02 09:35:40;;;;;;;10.80;4.20;;;;;;;28.62;36.54;100823.48;112540;1244;21958;-81
2023/09/02 09:42:06;;;;;;;6.00;4.30;;;;;;;28.71;36.85;100827.23;111739;1253;23111;-80
2023/09/02 09:45:25;;;;;;;5.40;4.10;;;;;;;28.96;36.46;100827.50;111518;1253;21965;-80
2023/09/02 09:49:05;;;;;;;5.30;3.90;;;;;;;29.07;35.97;100826.85;112122;1247;21982;-79
2023/09/02 09:52:20;;;;;;;9.20;3.80;;;;;;;29.19;35.12;100828.52;112289;1247;21953;-81
2023/09/02 09:55:34;;;;;;;;;;;;;;;;;;;;;
2023/09/02 09:58:23;;;;;;;10.30;4.30;;;;;;;29.11;33.90;100838.69;112044;1250;21985;-81
2023/09/02 10:01:08;;;;;;;5.50;3.30;;;;;;;28.61;34.47;100836.23;111729;1251;23021;-83
2023/09/02 10:03:50;;;;;;;7.70;3.40;;;;;;;28.51;35.28;100836.80;111645;1250;21953;-80
2023/09/02 10:06:20;;;;;;;5.70;3.50;;;;;;;28.62;34.71;100839.13;111796;1250;23907;-80
2023/09/02 10:08:59;;;;;;;5.10;3.40;;;;;;;28.77;34.10;100841.89;111729;1251;23070;-80
2023/09/02 10:11:41;;;;;;;9.50;3.70;;;;;;;28.82;33.32;100844.05;111643;1255;22666;-80
2023/09/02 10:14:25;;;;;;;7.30;3.30;;;;;;;28.79;33.21;100843.27;112631;1243;22706;-80
2023/09/02 10:17:10;;;;;;;6.50;3.10;;;;;;;28.64;32.80;100844.54;112712;1243;21969;-81
2023/09/02 10:20:12;;;;;;;5.10;3.50;;;;;;;28.47;33.74;100847.30;112584;1243;21993;-80
2023/09/02 10:23:28;;;;;;;8.10;3.90;;;;;;;28.50;34.05;100844.96;112557;1243;22055;-79
2023/09/02 10:26:26;;;;;;;6.60;3.30;;;;;;;28.58;33.83;100842.65;112942;1238;22444;-80
2023/09/02 10:29:10;;;;;;;8.50;4.00;;;;;;;28.41;33.77;100845.56;113091;1235;22050;-80
2023/09/02 10:31:55;;;;;;;7.30;3.00;;;;;;;28.45;34.14;100842.62;113720;1233;22193;-80
2023/09/02 10:35:11;;;;;;;6.50;2.70;;;;;;;28.62;33.72;100840.36;113632;1235;23575;-80
2023/09/02 10:38:17;;;;;;;5.00;3.50;;;;;;;28.71;33.42;100842.41;113748;1233;21953;-80
2023/09/02 10:41:37;;;;;;;;;;;;;;;;;;;;;
2023/09/02 10:44:43;;;;;;;5.70;3.00;;;;;;;28.59;33.06;100836.00;113556;1238;22100;-81
2023/09/02 10:47:43;;;;;;;;;;;;;;;;;;;;;
2023/09/02 10:50:46;;;;;;;8.40;3.40;;;;;;;28.70;33.17;100848.96;113420;1236;21935;-80
2023/09/02 10:54:02;;;;;;;4.90;2.90;;;;;;;28.70;32.78;100845.77;113319;1239;21994;-79
2023/09/02 10:56:56;;;;;;;4.60;2.60;;;;;;;28.65;33.00;100846.83;112921;1239;21963;-80
2023/09/02 11:00:24;;;;;;;7.20;3.20;;;;;;;28.62;32.91;100851.02;113027;1239;22960;-81
2023/09/02 11:04:03;;;;;;;5.00;2.60;;;;;;;28.25;32.74;100861.17;111697;1254;22334;-80
2023/09/02 11:07:20;;;;;;;5.60;2.60;;;;;;;27.67;32.70;100859.46;111266;1260;22233;-82
2023/09/02 11:09:58;;;;;;;6.00;2.80;;;;;;;27.32;33.58;100858.36;111246;1260;22456;-82
2023/09/02 11:12:34;;;;;;;6.70;2.60;;;;;;;27.18;34.26;100857.09;111493;1257;21992;-80
2023/09/02 11:15:15;;;;;;;6.50;2.80;;;;;;;27.13;34.50;100857.19;111637;1255;22031;-80
2023/09/02 11:17:57;;;;;;;6.70;3.10;;;;;;;27.09;34.44;100861.38;111107;1261;21967;-81
2023/09/02 11:20:49;;;;;;;6.80;2.80;;;;;;;26.98;34.66;100869.55;110630;1265;22424;-81
2023/09/02 11:23:22;;;;;;;5.30;2.70;;;;;;;26.90;34.68;100871.95;110798;1261;21997;-79
2023/09/02 11:26:16;;;;;;;6.50;2.80;;;;;;;26.85;34.93;100867.88;110042;1270;21999;-80
2023/09/02 11:29:34;;;;;;;3.90;2.20;;;;;;;26.91;34.36;100871.00;107867;1289;544094;-79
2023/09/02 11:33:21;;;;;;;5.50;2.80;;;;;;;26.65;34.69;100872.13;111121;1256;21933;-79
2023/09/02 11:36:43;;;;;;;5.40;2.80;;;;;;;26.36;34.65;100874.22;111005;1261;21961;-79
2023/09/02 11:40:42;;;;;;;4.10;2.20;;;;;;;26.00;34.61;100878.87;110262;1267;22331;-80
2023/09/02 11:44:58;;;;;;;5.50;2.90;;;;;;;25.72;35.38;100879.17;104807;1283;23979;-83
2023/09/02 11:48:19;;;;;;;5.00;3.60;;;;;;;25.56;35.73;100875.15;108455;1289;22152;-82
2023/09/02 11:51:18;;;;;;;6.80;2.50;;;;;;;25.45;35.77;100872.60;108347;1289;22597;-80
2023/09/02 11:54:08;;;;;;;16.00;2.70;;;;;;;25.34;35.94;100871.09;108467;1287;23046;-80
2023/09/02 11:57:07;;;;;;;6.60;3.00;;;;;;;25.38;36.08;100869.42;108239;1289;544475;-79
2023/09/02 11:59:48;;;;;;;6.00;3.20;;;;;;;25.28;36.20;100872.11;109560;1273;24317;-81
2023/09/02 12:02:23;;;;;;;10.10;2.80;;;;;;;25.26;36.10;100872.12;109610;1273;22004;-80
2023/09/02 12:04:59;;;;;;;5.00;2.60;;;;;;;25.23;36.14;100870.63;109201;1277;22334;-80
2023/09/02 12:07:38;;;;;;;;;;;;;;;25.22;36.04;100874.80;109289;1276;21938;-82
2023/09/02 12:10:24;;;;;;;4.40;2.10;;;;;;;25.06;36.08;100876.05;106762;1274;3374248;-80
2023/09/02 12:12:55;;;;;;;5.00;2.60;;;;;;;25.04;36.47;100878.20;108923;1280;22001;-81
2023/09/02 12:15:25;;;;;;;5.60;2.50;;;;;;;25.02;36.31;100880.56;108756;1277;22143;-79
2023/09/02 12:18:35;;;;;;;4.50;2.50;;;;;;;24.96;36.59;100881.11;108671;1280;22005;-80
2023/09/02 12:24:26;;;;;;;4.10;2.80;;;;;;;24.89;36.55;100873.65;108965;1281;23745;-81
2023/09/02 12:27:27;;;;;;;5.70;3.10;;;;;;;24.93;36.15;100871.58;108843;1282;22015;-79
2023/09/02 12:31:02;;;;;;;5.20;2.20;;;;;;;24.85;35.89;100868.52;109268;1274;22132;-80
2023/09/02 12:34:44;;;;;;;5.90;2.90;;;;;;;24.78;36.05;100868.49;109449;1274;22193;-83
2023/09/02 12:37:40;;;;;;;;;;;;;;;;;;;;;
2023/09/02 12:41:06;;;;;;;6.40;2.40;;;;;;;24.54;37.19;100852.81;109264;1276;21994;-80
2023/09/02 12:48:55;;;;;;;;;;;;;;;;;;;;;
2023/09/02 12:55:47;;;;;;;8.90;3.00;;;;;;;24.35;37.52;100870.77;108713;1276;22840;-80
2023/09/02 12:58:56;;;;;;;3.40;2.90;;;;;;;24.33;37.30;100869.20;108636;1284;21823;-83
2023/09/02 13:02:08;;;;;;;3.80;2.50;;;;;;;24.31;37.39;100874.86;108832;1281;23046;-80
2023/09/02 13:05:05;;;;;;;4.70;2.60;;;;;;;24.30;37.62;100874.45;108873;1280;22176;-81
2023/09/02 13:07:45;;;;;;;6.00;3.00;;;;;;;24.32;37.92;100868.55;109047;1281;22567;-81
2023/09/02 13:15:02;;;;;;;;;;;;;;;;;;;;;
2023/09/02 13:18:18;;;;;;;5.10;3.10;;;;;;;24.29;38.62;100867.20;108896;1278;22561;-79
2023/09/02 13:29:59;;;;;;;;;;;;;;;;;;;;;
2023/09/02 13:33:38;;;;;;;3.50;2.80;;;;;;;24.26;38.15;100874.80;107227;1303;22026;-81
2023/09/02 13:37:53;;;;;;;3.60;2.20;;;;;;;24.23;37.94;100882.39;107195;1300;22009;-82
2023/09/02 13:40:42;;;;;;;4.30;2.80;;;;;;;24.19;38.05;100882.02;107526;1299;23669;-81
2023/09/02 13:44:28;;;;;;;;;;;;;;;;;;;;;
2023/09/02 13:48:05;;;;;;;3.60;2.10;;;;;;;24.13;38.01;100883.40;107793;1297;22009;-81
2023/09/02 13:50:48;;;;;;;4.40;2.80;;;;;;;24.06;38.02;100884.02;107250;1301;23655;-82
2023/09/02 13:53:59;;;;;;;;;;;;;;;;;;;;;
2023/09/02 13:57:11;;;;;;;5.10;2.50;;;;;;;24.05;38.08;100882.81;107682;1297;22512;-82
2023/09/02 13:59:42;;;;;;;6.00;3.30;;;;;;;24.10;38.46;100884.86;107580;1297;22254;-83
2023/09/02 14:02:18;;;;;;;6.20;2.60;;;;;;;24.14;38.43;100882.77;107794;1297;22002;-82
2023/09/02 14:04:49;;;;;;;3.50;2.20;;;;;;;24.13;38.43;100884.64;107516;1295;22020;-81
2023/09/02 14:07:16;;;;;;;6.20;2.90;;;;;;;24.11;38.46;100882.50;107908;1295;24220;-82
2023/09/02 14:09:48;;;;;;;5.80;2.60;;;;;;;24.10;38.72;100883.48;108820;1276;23635;-79
2023/09/02 14:12:20;;;;;;;10.30;4.20;;;;;;;24.04;38.44;100884.15;109114;1276;22095;-83
2023/09/02 14:15:21;;;;;;;13.90;12.70;;;;;;;23.95;38.51;100883.31;109066;1275;22048;-82
2023/09/02 14:17:55;;;;;;;5.50;3.30;;;;;;;23.90;38.56;100887.47;108873;1274;22016;-81
2023/09/02 14:20:45;;;;;;;3.80;2.10;;;;;;;23.86;38.58;100881.63;109225;1276;22472;-80
2023/09/02 14:23:48;;;;;;;3.20;2.60;;;;;;;23.88;38.40;100886.59;109176;1267;22001;-79
2023/09/02 14:26:32;;;;;;;4.20;2.10;;;;;;;23.84;38.21;100886.38;109972;1268;21988;-83
2023/09/02 14:29:11;;;;;;;4.40;2.00;;;;;;;23.81;38.30;100887.34;110744;1265;22041;-81
2023/09/02 14:32:20;;;;;;;48.50;44.30;;;;;;;23.75;38.57;100884.11;110484;1265;21960;-82
2023/09/02 14:35:34;;;;;;;6.70;5.50;;;;;;;23.75;38.69;100892.11;110530;1265;21979;-82
2023/09/02 14:38:21;;;;;;;;;;;;;;;;;;;;;
2023/09/02 14:41:10;;;;;;;7.50;2.90;;;;;;;23.75;39.34;100897.99;109705;1271;21977;-80
2023/09/02 14:43:51;;;;;;;7.80;3.20;;;;;;;23.80;39.31;100899.89;109730;1272;22034;-81
2023/09/02 14:46:27;;;;;;;4.20;2.40;;;;;;;23.76;39.30;100897.77;109765;1272;22002;-83
2023/09/02 14:49:58;;;;;;;5.60;2.90;;;;;;;23.70;39.33;100899.44;110273;1267;21803;-81
2023/09/02 14:53:00;;;;;;;5.70;3.20;;;;;;;23.63;39.31;100892.60;110119;1267;22770;-83
2023/09/02 14:56:11;;;;;;;;;;;;;;;;;;;;;
2023/09/02 14:59:23;;;;;;;3.90;3.20;;;;;;;23.59;39.35;100898.29;110207;1266;21981;-82
2023/09/02 15:02:10;;;;;;;6.00;2.90;;;;;;;23.58;39.29;100898.35;109795;1271;22006;-83
2023/09/02 15:04:56;;;;;;;;;;;;;;;23.55;39.32;100901.65;109677;1271;21972;-81
2023/09/02 15:07:56;;;;;;;6.10;2.80;;;;;;;23.44;39.48;100902.75;109829;1271;21990;-83
2023/09/02 15:10:35;;;;;;;5.20;3.20;;;;;;;23.44;39.74;100903.77;109783;1268;21988;-83
2023/09/02 15:13:15;;;;;;;3.90;2.90;;;;;;;23.50;39.87;100907.32;109537;1267;21985;-80
2023/09/02 15:15:49;;;;;;;5.60;3.00;;;;;;;23.57;39.81;100906.25;109699;1271;21995;-82
2023/09/02 15:18:36;;;;;;;11.20;3.80;;;;;;;23.60;39.72;100905.11;109614;1271;23641;-81
2023/09/02 15:21:18;;;;;;;6.00;2.90;;;;;;;23.62;39.69;100907.82;110429;1265;21973;-82
2023/09/02 15:24:04;;;;;;;10.90;3.90;;;;;;;23.62;39.72;100909.78;110343;1266;21977;-83
2023/09/02 15:27:01;;;;;;;4.60;3.10;;;;;;;23.62;39.84;100905.98;110514;1262;21979;-80
2023/09/02 15:29:51;;;;;;;;;;;;;;;;;;;;;
2023/09/02 15:33:36;;;;;;;4.30;3.10;;;;;;;23.58;39.55;100913.12;109651;1275;22253;-84
2023/09/02 15:36:34;;;;;;;12.80;4.00;;;;;;;23.52;39.67;100910.89;109589;1275;21950;-82
2023/09/02 15:39:35;;;;;;;5.70;3.40;;;;;;;23.47;39.65;100912.56;109099;1281;21983;-80
2023/09/02 15:42:22;;;;;;;3.80;3.00;;;;;;;23.48;39.91;100914.61;109027;1280;21993;-79
2023/09/02 15:44:55;;;;;;;4.30;3.00;;;;;;;23.50;39.88;100917.15;109173;1278;21991;-84
2023/09/02 15:47:47;;;;;;;5.60;2.90;;;;;;;23.47;39.99;100917.04;109111;1279;21989;-83
2023/09/02 15:51:05;;;;;;;;;;;;;;;;;;;;;
2023/09/02 15:54:14;;;;;;;4.10;2.90;;;;;;;23.30;40.39;100917.89;108967;1279;23855;-80
2023/09/02 15:57:02;;;;;;;5.90;3.00;;;;;;;23.30;40.58;100916.49;108975;1277;24411;-84
2023/09/02 15:59:39;;;;;;;5.70;3.10;;;;;;;23.29;40.78;100921.40;108934;1282;22008;-79
2023/09/02 16:02:11;;;;;;;6.60;2.90;;;;;;;23.28;41.14;100918.61;108770;1274;22000;-78
2023/09/02 16:05:44;;;;;;;;;;;;;;;;;;;;;
2023/09/02 16:09:45;;;;;;;;;;;;;;;;;;;;;
2023/09/02 16:12:43;;;;;;;6.30;3.50;;;;;;;23.11;41.24;100927.27;107869;1297;22008;-79
2023/09/02 16:18:49;;;;;;;11.30;4.10;;;;;;;23.01;41.15;100929.80;108196;1289;23745;-78
2023/09/02 16:21:46;;;;;;;6.50;3.10;;;;;;;22.99;41.31;100927.35;108147;1289;23632;-78
2023/09/02 16:24:15;;;;;;;11.20;4.00;;;;;;;22.94;41.46;100924.17;107897;1287;22727;-79
2023/09/02 16:26:52;;;;;;;4.90;3.40;;;;;;;22.91;41.41;100922.61;108134;1287;21998;-78